sensor_id;sensor_type;location;lat;lon;timestamp;temperature;humidity
71668;DHT22;59504;54.806;9.640;2022-12-07T00:00:17;1.80;76.50
71668;DHT22;59504;54.806;9.640;2022-12-07T00:02:38;1.80;76.60
71668;DHT22;59504;54.806;9.640;2022-12-07T00:04:58;1.80;76.50
71668;DHT22;59504;54.806;9.640;2022-12-07T00:07:19;1.80;76.60
71668;DHT22;59504;54.806;9.640;2022-12-07T00:09:40;1.80;76.60
71668;DHT22;59504;54.806;9.640;2022-12-07T00:12:02;1.80;76.70
71668;DHT22;59504;54.806;9.640;2022-12-07T00:14:06;1.80;76.70
71668;DHT22;59504;54.806;9.640;2022-12-07T00:18:30;1.70;76.60
71668;DHT22;59504;54.806;9.640;2022-12-07T00:20:51;1.70;76.60
71668;DHT22;59504;54.806;9.640;2022-12-07T00:23:11;1.70;76.60
71668;DHT22;59504;54.806;9.640;2022-12-07T00:25:32;1.70;76.60
71668;DHT22;59504;54.806;9.640;2022-12-07T00:27:53;1.70;76.50
71668;DHT22;59504;54.806;9.640;2022-12-07T00:30:16;1.70;76.50
71668;DHT22;59504;54.806;9.640;2022-12-07T00:32:37;1.70;76.60
71668;DHT22;59504;54.806;9.640;2022-12-07T00:34:57;1.70;76.60
71668;DHT22;59504;54.806;9.640;2022-12-07T00:37:18;1.60;76.40
71668;DHT22;59504;54.806;9.640;2022-12-07T00:39:39;1.60;76.40
71668;DHT22;59504;54.806;9.640;2022-12-07T00:41:59;1.60;76.40
71668;DHT22;59504;54.806;9.640;2022-12-07T00:44:09;1.60;76.30
71668;DHT22;59504;54.806;9.640;2022-12-07T00:46:30;1.60;76.10
71668;DHT22;59504;54.806;9.640;2022-12-07T00:48:51;1.50;75.90
71668;DHT22;59504;54.806;9.640;2022-12-07T00:51:14;1.50;75.80
71668;DHT22;59504;54.806;9.640;2022-12-07T00:53:35;1.50;75.90
71668;DHT22;59504;54.806;9.640;2022-12-07T00:55:57;1.40;75.90
71668;DHT22;59504;54.806;9.640;2022-12-07T00:58:18;1.40;76.00
71668;DHT22;59504;54.806;9.640;2022-12-07T01:00:40;1.30;76.10
71668;DHT22;59504;54.806;9.640;2022-12-07T01:03:01;1.30;76.20
71668;DHT22;59504;54.806;9.640;2022-12-07T01:05:21;1.30;76.40
71668;DHT22;59504;54.806;9.640;2022-12-07T01:07:42;1.30;76.50
71668;DHT22;59504;54.806;9.640;2022-12-07T01:10:03;1.30;77.30
71668;DHT22;59504;54.806;9.640;2022-12-07T01:12:23;1.20;76.60
71668;DHT22;59504;54.806;9.640;2022-12-07T01:14:44;1.20;76.80
71668;DHT22;59504;54.806;9.640;2022-12-07T01:17:05;1.30;76.90
71668;DHT22;59504;54.806;9.640;2022-12-07T01:19:25;1.20;77.10
71668;DHT22;59504;54.806;9.640;2022-12-07T01:21:46;1.20;77.20
71668;DHT22;59504;54.806;9.640;2022-12-07T01:24:10;1.20;77.40
71668;DHT22;59504;54.806;9.640;2022-12-07T01:26:31;1.20;78.30
71668;DHT22;59504;54.806;9.640;2022-12-07T01:28:52;1.20;77.70
71668;DHT22;59504;54.806;9.640;2022-12-07T01:31:20;1.20;77.80
71668;DHT22;59504;54.806;9.640;2022-12-07T01:33:43;1.20;77.80
71668;DHT22;59504;54.806;9.640;2022-12-07T01:35:43;1.20;78.00
71668;DHT22;59504;54.806;9.640;2022-12-07T01:37:44;1.20;78.00
71668;DHT22;59504;54.806;9.640;2022-12-07T01:39:48;1.20;78.10
71668;DHT22;59504;54.806;9.640;2022-12-07T01:41:49;1.20;78.00
71668;DHT22;59504;54.806;9.640;2022-12-07T01:44:26;1.20;78.10
71668;DHT22;59504;54.806;9.640;2022-12-07T01:46:51;1.20;78.10
71668;DHT22;59504;54.806;9.640;2022-12-07T01:49:17;1.20;78.10
71668;DHT22;59504;54.806;9.640;2022-12-07T01:51:23;1.20;78.10
71668;DHT22;59504;54.806;9.640;2022-12-07T01:53:45;1.10;78.00
71668;DHT22;59504;54.806;9.640;2022-12-07T01:55:47;1.10;78.00
71668;DHT22;59504;54.806;9.640;2022-12-07T01:58:10;1.10;78.00
71668;DHT22;59504;54.806;9.640;2022-12-07T02:00:31;1.10;78.00
71668;DHT22;59504;54.806;9.640;2022-12-07T02:02:57;1.10;77.80
71668;DHT22;59504;54.806;9.640;2022-12-07T02:05:19;1.10;77.90
71668;DHT22;59504;54.806;9.640;2022-12-07T02:07:40;1.10;77.80
71668;DHT22;59504;54.806;9.640;2022-12-07T02:12:46;1.00;77.80
71668;DHT22;59504;54.806;9.640;2022-12-07T02:15:08;1.00;77.80
71668;DHT22;59504;54.806;9.640;2022-12-07T02:17:34;1.00;77.90
71668;DHT22;59504;54.806;9.640;2022-12-07T02:25:13;0.90;77.90
71668;DHT22;59504;54.806;9.640;2022-12-07T02:27:47;0.90;77.70
71668;DHT22;59504;54.806;9.640;2022-12-07T02:32:00;0.90;77.70
71668;DHT22;59504;54.806;9.640;2022-12-07T02:36:21;0.80;77.70
71668;DHT22;59504;54.806;9.640;2022-12-07T02:41:02;0.80;77.70
71668;DHT22;59504;54.806;9.640;2022-12-07T02:43:26;0.70;77.60
71668;DHT22;59504;54.806;9.640;2022-12-07T02:45:48;0.70;77.60
71668;DHT22;59504;54.806;9.640;2022-12-07T02:48:12;0.70;77.50
71668;DHT22;59504;54.806;9.640;2022-12-07T02:50:18;0.60;77.30
71668;DHT22;59504;54.806;9.640;2022-12-07T02:52:40;0.60;77.30
71668;DHT22;59504;54.806;9.640;2022-12-07T02:55:01;0.60;77.30
71668;DHT22;59504;54.806;9.640;2022-12-07T03:00:21;0.60;77.40
71668;DHT22;59504;54.806;9.640;2022-12-07T03:02:53;0.50;77.30
71668;DHT22;59504;54.806;9.640;2022-12-07T03:10:08;0.50;77.50
71668;DHT22;59504;54.806;9.640;2022-12-07T03:12:37;0.50;77.50
71668;DHT22;59504;54.806;9.640;2022-12-07T03:15:03;0.40;77.50
71668;DHT22;59504;54.806;9.640;2022-12-07T03:17:30;0.40;77.50
71668;DHT22;59504;54.806;9.640;2022-12-07T03:19:56;0.40;77.50
71668;DHT22;59504;54.806;9.640;2022-12-07T03:22:19;0.40;77.50
71668;DHT22;59504;54.806;9.640;2022-12-07T03:24:45;0.40;77.50
71668;DHT22;59504;54.806;9.640;2022-12-07T03:27:11;0.30;77.60
71668;DHT22;59504;54.806;9.640;2022-12-07T03:29:47;0.30;77.60
71668;DHT22;59504;54.806;9.640;2022-12-07T03:34:49;0.30;77.70
71668;DHT22;59504;54.806;9.640;2022-12-07T03:37:45;0.30;77.70
71668;DHT22;59504;54.806;9.640;2022-12-07T03:40:12;0.30;77.90
71668;DHT22;59504;54.806;9.640;2022-12-07T03:42:34;0.20;77.80
71668;DHT22;59504;54.806;9.640;2022-12-07T03:44:55;0.20;77.70
71668;DHT22;59504;54.806;9.640;2022-12-07T03:47:25;0.20;77.80
71668;DHT22;59504;54.806;9.640;2022-12-07T03:52:26;0.20;77.90
71668;DHT22;59504;54.806;9.640;2022-12-07T03:57:12;0.20;78.00
71668;DHT22;59504;54.806;9.640;2022-12-07T03:59:33;0.10;78.00
71668;DHT22;59504;54.806;9.640;2022-12-07T04:01:56;0.10;78.00
71668;DHT22;59504;54.806;9.640;2022-12-07T04:04:17;0.10;78.00
71668;DHT22;59504;54.806;9.640;2022-12-07T04:06:38;0.10;78.10
71668;DHT22;59504;54.806;9.640;2022-12-07T04:08:58;0.10;78.00
71668;DHT22;59504;54.806;9.640;2022-12-07T04:11:19;0.00;78.00
71668;DHT22;59504;54.806;9.640;2022-12-07T04:13:40;0.00;78.00
71668;DHT22;59504;54.806;9.640;2022-12-07T04:15:59;0.00;78.00
71668;DHT22;59504;54.806;9.640;2022-12-07T04:18:19;0.00;78.00
71668;DHT22;59504;54.806;9.640;2022-12-07T04:20:40;0.00;78.00
71668;DHT22;59504;54.806;9.640;2022-12-07T04:23:01;0.00;78.10
71668;DHT22;59504;54.806;9.640;2022-12-07T04:25:22;0.00;78.00
71668;DHT22;59504;54.806;9.640;2022-12-07T04:27:42;-0.10;78.00
71668;DHT22;59504;54.806;9.640;2022-12-07T04:30:04;0.00;78.00
71668;DHT22;59504;54.806;9.640;2022-12-07T04:32:25;-0.10;78.00
71668;DHT22;59504;54.806;9.640;2022-12-07T04:34:45;-0.10;78.00
71668;DHT22;59504;54.806;9.640;2022-12-07T04:37:06;-0.10;78.00
71668;DHT22;59504;54.806;9.640;2022-12-07T04:39:31;-0.10;78.10
71668;DHT22;59504;54.806;9.640;2022-12-07T04:41:36;-0.10;78.00
71668;DHT22;59504;54.806;9.640;2022-12-07T04:44:00;-0.10;78.00
71668;DHT22;59504;54.806;9.640;2022-12-07T04:46:20;-0.10;78.00
71668;DHT22;59504;54.806;9.640;2022-12-07T04:48:41;-0.10;78.00
71668;DHT22;59504;54.806;9.640;2022-12-07T04:51:03;-0.10;78.00
71668;DHT22;59504;54.806;9.640;2022-12-07T04:53:24;-0.10;78.00
71668;DHT22;59504;54.806;9.640;2022-12-07T04:55:24;-0.20;78.00
71668;DHT22;59504;54.806;9.640;2022-12-07T04:57:45;-0.20;77.90
71668;DHT22;59504;54.806;9.640;2022-12-07T05:00:06;-0.20;78.00
71668;DHT22;59504;54.806;9.640;2022-12-07T05:02:09;-0.20;78.00
71668;DHT22;59504;54.806;9.640;2022-12-07T05:04:30;-0.20;78.00
71668;DHT22;59504;54.806;9.640;2022-12-07T05:06:51;-0.30;77.90
71668;DHT22;59504;54.806;9.640;2022-12-07T05:09:11;-0.30;77.90
71668;DHT22;59504;54.806;9.640;2022-12-07T05:11:32;-0.30;78.00
71668;DHT22;59504;54.806;9.640;2022-12-07T05:13:58;-0.30;78.00
71668;DHT22;59504;54.806;9.640;2022-12-07T05:16:19;-0.30;78.10
71668;DHT22;59504;54.806;9.640;2022-12-07T05:18:40;-0.30;78.40
71668;DHT22;59504;54.806;9.640;2022-12-07T05:21:00;-0.30;79.00
71668;DHT22;59504;54.806;9.640;2022-12-07T05:23:21;-0.20;79.40
71668;DHT22;59504;54.806;9.640;2022-12-07T05:25:41;-0.20;79.80
71668;DHT22;59504;54.806;9.640;2022-12-07T05:28:03;-0.10;80.00
71668;DHT22;59504;54.806;9.640;2022-12-07T05:30:24;-0.10;80.00
71668;DHT22;59504;54.806;9.640;2022-12-07T05:32:45;-0.10;80.00
71668;DHT22;59504;54.806;9.640;2022-12-07T05:35:06;0.00;80.20
71668;DHT22;59504;54.806;9.640;2022-12-07T05:37:26;0.00;80.30
71668;DHT22;59504;54.806;9.640;2022-12-07T05:39:47;0.00;80.20
71668;DHT22;59504;54.806;9.640;2022-12-07T05:42:09;0.10;80.20
71668;DHT22;59504;54.806;9.640;2022-12-07T05:44:33;0.10;80.20
71668;DHT22;59504;54.806;9.640;2022-12-07T05:46:54;0.10;80.10
71668;DHT22;59504;54.806;9.640;2022-12-07T05:49:14;0.20;80.00
71668;DHT22;59504;54.806;9.640;2022-12-07T05:51:35;0.20;80.00
71668;DHT22;59504;54.806;9.640;2022-12-07T05:53:55;0.20;79.90
71668;DHT22;59504;54.806;9.640;2022-12-07T05:56:16;0.20;79.80
71668;DHT22;59504;54.806;9.640;2022-12-07T05:58:36;0.20;79.90
71668;DHT22;59504;54.806;9.640;2022-12-07T06:01:16;0.20;79.90
71668;DHT22;59504;54.806;9.640;2022-12-07T06:03:36;0.30;80.50
71668;DHT22;59504;54.806;9.640;2022-12-07T06:05:57;0.30;79.80
71668;DHT22;59504;54.806;9.640;2022-12-07T06:08:17;0.30;79.70
71668;DHT22;59504;54.806;9.640;2022-12-07T06:10:38;0.30;79.60
71668;DHT22;59504;54.806;9.640;2022-12-07T06:12:59;0.30;79.50
71668;DHT22;59504;54.806;9.640;2022-12-07T06:15:19;0.30;79.50
71668;DHT22;59504;54.806;9.640;2022-12-07T06:17:39;0.30;79.40
71668;DHT22;59504;54.806;9.640;2022-12-07T06:19:58;0.30;79.40
71668;DHT22;59504;54.806;9.640;2022-12-07T06:22:17;0.30;79.30
71668;DHT22;59504;54.806;9.640;2022-12-07T06:24:38;0.30;79.30
71668;DHT22;59504;54.806;9.640;2022-12-07T06:26:58;0.30;79.40
71668;DHT22;59504;54.806;9.640;2022-12-07T06:29:17;0.30;79.40
71668;DHT22;59504;54.806;9.640;2022-12-07T06:31:37;0.30;79.50
71668;DHT22;59504;54.806;9.640;2022-12-07T06:34:02;0.30;79.60
71668;DHT22;59504;54.806;9.640;2022-12-07T06:36:21;0.30;79.60
71668;DHT22;59504;54.806;9.640;2022-12-07T06:38:40;0.30;79.60
71668;DHT22;59504;54.806;9.640;2022-12-07T06:40:59;0.30;79.50
71668;DHT22;59504;54.806;9.640;2022-12-07T06:43:18;0.30;79.50
71668;DHT22;59504;54.806;9.640;2022-12-07T06:45:37;0.30;79.50
71668;DHT22;59504;54.806;9.640;2022-12-07T06:47:57;0.50;79.60
71668;DHT22;59504;54.806;9.640;2022-12-07T06:50:16;0.40;79.50
71668;DHT22;59504;54.806;9.640;2022-12-07T06:52:35;0.40;79.40
71668;DHT22;59504;54.806;9.640;2022-12-07T06:54:54;0.40;79.40
71668;DHT22;59504;54.806;9.640;2022-12-07T06:57:13;0.40;79.30
71668;DHT22;59504;54.806;9.640;2022-12-07T06:59:32;0.40;79.20
71668;DHT22;59504;54.806;9.640;2022-12-07T07:01:51;0.40;79.10
71668;DHT22;59504;54.806;9.640;2022-12-07T07:04:10;0.40;79.10
71668;DHT22;59504;54.806;9.640;2022-12-07T07:06:29;0.40;79.10
71668;DHT22;59504;54.806;9.640;2022-12-07T07:08:49;0.40;79.00
71668;DHT22;59504;54.806;9.640;2022-12-07T07:11:09;0.40;79.80
71668;DHT22;59504;54.806;9.640;2022-12-07T07:13:29;0.40;79.00
71668;DHT22;59504;54.806;9.640;2022-12-07T07:15:48;0.40;78.90
71668;DHT22;59504;54.806;9.640;2022-12-07T07:18:07;0.40;78.70
71668;DHT22;59504;54.806;9.640;2022-12-07T07:20:26;0.50;78.60
71668;DHT22;59504;54.806;9.640;2022-12-07T07:22:45;0.50;78.50
71668;DHT22;59504;54.806;9.640;2022-12-07T07:25:05;0.50;78.40
71668;DHT22;59504;54.806;9.640;2022-12-07T07:27:24;0.50;78.30
71668;DHT22;59504;54.806;9.640;2022-12-07T07:29:44;0.40;78.10
71668;DHT22;59504;54.806;9.640;2022-12-07T07:32:03;0.50;78.20
71668;DHT22;59504;54.806;9.640;2022-12-07T07:34:22;0.40;78.10
71668;DHT22;59504;54.806;9.640;2022-12-07T07:36:41;0.40;78.20
71668;DHT22;59504;54.806;9.640;2022-12-07T07:39:00;0.50;78.20
71668;DHT22;59504;54.806;9.640;2022-12-07T07:41:19;0.50;78.00
71668;DHT22;59504;54.806;9.640;2022-12-07T07:43:38;0.50;77.90
71668;DHT22;59504;54.806;9.640;2022-12-07T07:45:58;0.50;77.90
71668;DHT22;59504;54.806;9.640;2022-12-07T07:48:17;0.50;77.60
71668;DHT22;59504;54.806;9.640;2022-12-07T07:50:36;0.50;77.50
71668;DHT22;59504;54.806;9.640;2022-12-07T07:52:57;0.50;77.10
71668;DHT22;59504;54.806;9.640;2022-12-07T07:55:16;0.50;77.10
71668;DHT22;59504;54.806;9.640;2022-12-07T07:57:37;0.50;77.10
71668;DHT22;59504;54.806;9.640;2022-12-07T07:59:56;0.50;77.00
71668;DHT22;59504;54.806;9.640;2022-12-07T08:02:17;0.50;76.40
71668;DHT22;59504;54.806;9.640;2022-12-07T08:04:37;0.50;76.70
71668;DHT22;59504;54.806;9.640;2022-12-07T08:06:56;0.50;76.40
71668;DHT22;59504;54.806;9.640;2022-12-07T08:09:16;0.60;76.30
71668;DHT22;59504;54.806;9.640;2022-12-07T08:11:35;0.60;76.10
71668;DHT22;59504;54.806;9.640;2022-12-07T08:13:55;0.60;75.50
71668;DHT22;59504;54.806;9.640;2022-12-07T08:16:14;0.60;75.20
71668;DHT22;59504;54.806;9.640;2022-12-07T08:18:38;0.70;75.30
71668;DHT22;59504;54.806;9.640;2022-12-07T08:21:01;0.70;75.00
71668;DHT22;59504;54.806;9.640;2022-12-07T08:23:21;0.70;74.80
71668;DHT22;59504;54.806;9.640;2022-12-07T08:25:40;0.70;74.80
71668;DHT22;59504;54.806;9.640;2022-12-07T08:28:00;0.70;74.70
71668;DHT22;59504;54.806;9.640;2022-12-07T08:30:20;0.70;74.60
71668;DHT22;59504;54.806;9.640;2022-12-07T08:32:39;0.70;74.50
71668;DHT22;59504;54.806;9.640;2022-12-07T08:34:58;0.80;74.30
71668;DHT22;59504;54.806;9.640;2022-12-07T08:37:18;0.80;74.00
71668;DHT22;59504;54.806;9.640;2022-12-07T08:39:37;0.80;73.90
71668;DHT22;59504;54.806;9.640;2022-12-07T08:41:56;0.80;73.40
71668;DHT22;59504;54.806;9.640;2022-12-07T08:44:15;0.80;73.30
71668;DHT22;59504;54.806;9.640;2022-12-07T08:46:40;0.80;73.30
71668;DHT22;59504;54.806;9.640;2022-12-07T08:51:26;0.80;73.10
71668;DHT22;59504;54.806;9.640;2022-12-07T08:53:45;0.80;72.90
71668;DHT22;59504;54.806;9.640;2022-12-07T08:56:05;0.80;72.50
71668;DHT22;59504;54.806;9.640;2022-12-07T08:58:25;0.80;72.70
71668;DHT22;59504;54.806;9.640;2022-12-07T09:00:45;0.80;72.70
71668;DHT22;59504;54.806;9.640;2022-12-07T09:03:04;0.80;72.50
71668;DHT22;59504;54.806;9.640;2022-12-07T09:05:23;0.80;72.50
71668;DHT22;59504;54.806;9.640;2022-12-07T09:07:44;0.80;72.50
71668;DHT22;59504;54.806;9.640;2022-12-07T09:10:05;0.80;73.10
71668;DHT22;59504;54.806;9.640;2022-12-07T09:12:25;0.80;72.10
71668;DHT22;59504;54.806;9.640;2022-12-07T09:14:44;0.80;72.70
71668;DHT22;59504;54.806;9.640;2022-12-07T09:17:11;0.80;72.00
71668;DHT22;59504;54.806;9.640;2022-12-07T09:19:30;0.90;71.90
71668;DHT22;59504;54.806;9.640;2022-12-07T09:21:50;0.90;71.80
71668;DHT22;59504;54.806;9.640;2022-12-07T09:24:09;0.80;71.30
71668;DHT22;59504;54.806;9.640;2022-12-07T09:26:28;0.80;71.60
71668;DHT22;59504;54.806;9.640;2022-12-07T09:28:47;0.90;71.40
71668;DHT22;59504;54.806;9.640;2022-12-07T09:31:07;0.90;71.60
71668;DHT22;59504;54.806;9.640;2022-12-07T09:33:26;1.00;71.30
71668;DHT22;59504;54.806;9.640;2022-12-07T09:35:46;0.90;71.00
71668;DHT22;59504;54.806;9.640;2022-12-07T09:38:05;0.90;71.00
71668;DHT22;59504;54.806;9.640;2022-12-07T09:40:25;0.90;70.90
71668;DHT22;59504;54.806;9.640;2022-12-07T09:42:48;1.00;70.80
71668;DHT22;59504;54.806;9.640;2022-12-07T09:45:13;1.00;70.80
71668;DHT22;59504;54.806;9.640;2022-12-07T09:47:33;1.00;70.70
71668;DHT22;59504;54.806;9.640;2022-12-07T09:50:00;1.00;70.30
71668;DHT22;59504;54.806;9.640;2022-12-07T09:52:27;1.00;70.50
71668;DHT22;59504;54.806;9.640;2022-12-07T09:54:49;1.10;70.50
71668;DHT22;59504;54.806;9.640;2022-12-07T09:57:11;1.10;70.50
71668;DHT22;59504;54.806;9.640;2022-12-07T09:59:31;1.10;70.40
71668;DHT22;59504;54.806;9.640;2022-12-07T10:01:50;1.20;70.30
71668;DHT22;59504;54.806;9.640;2022-12-07T10:04:19;1.20;70.40
71668;DHT22;59504;54.806;9.640;2022-12-07T10:06:40;1.20;70.10
71668;DHT22;59504;54.806;9.640;2022-12-07T10:09:00;1.20;70.70
71668;DHT22;59504;54.806;9.640;2022-12-07T10:11:19;1.20;69.90
71668;DHT22;59504;54.806;9.640;2022-12-07T10:15:59;1.30;69.70
71668;DHT22;59504;54.806;9.640;2022-12-07T10:20:40;1.30;69.50
71668;DHT22;59504;54.806;9.640;2022-12-07T10:23:05;1.30;69.30
71668;DHT22;59504;54.806;9.640;2022-12-07T10:25:33;1.30;69.40
71668;DHT22;59504;54.806;9.640;2022-12-07T10:28:00;1.30;69.40
71668;DHT22;59504;54.806;9.640;2022-12-07T10:30:20;1.30;69.30
71668;DHT22;59504;54.806;9.640;2022-12-07T10:32:39;1.30;69.10
71668;DHT22;59504;54.806;9.640;2022-12-07T10:35:28;1.40;69.20
71668;DHT22;59504;54.806;9.640;2022-12-07T10:37:48;1.40;69.20
71668;DHT22;59504;54.806;9.640;2022-12-07T10:40:26;1.40;69.10
71668;DHT22;59504;54.806;9.640;2022-12-07T10:43:04;1.40;68.90
71668;DHT22;59504;54.806;9.640;2022-12-07T10:45:23;1.50;68.90
71668;DHT22;59504;54.806;9.640;2022-12-07T10:47:55;1.40;68.90
71668;DHT22;59504;54.806;9.640;2022-12-07T11:12:13;1.50;69.40
71668;DHT22;59504;54.806;9.640;2022-12-07T11:14:44;1.60;69.50
71668;DHT22;59504;54.806;9.640;2022-12-07T11:22:50;1.50;69.50
71668;DHT22;59504;54.806;9.640;2022-12-07T11:30:38;1.50;69.60
71668;DHT22;59504;54.806;9.640;2022-12-07T11:33:21;1.60;69.80
71668;DHT22;59504;54.806;9.640;2022-12-07T11:38:45;1.40;69.70
71668;DHT22;59504;54.806;9.640;2022-12-07T11:41:07;1.40;69.70
71668;DHT22;59504;54.806;9.640;2022-12-07T11:43:34;1.40;69.70
71668;DHT22;59504;54.806;9.640;2022-12-07T11:46:07;1.40;69.40
71668;DHT22;59504;54.806;9.640;2022-12-07T11:48:40;1.40;69.50
71668;DHT22;59504;54.806;9.640;2022-12-07T11:51:02;1.50;69.60
71668;DHT22;59504;54.806;9.640;2022-12-07T11:54:10;1.40;69.60
71668;DHT22;59504;54.806;9.640;2022-12-07T11:56:13;1.30;69.70
71668;DHT22;59504;54.806;9.640;2022-12-07T11:58:48;1.30;69.70
71668;DHT22;59504;54.806;9.640;2022-12-07T12:03:38;1.30;69.80
71668;DHT22;59504;54.806;9.640;2022-12-07T12:05:59;1.30;69.80
71668;DHT22;59504;54.806;9.640;2022-12-07T12:08:30;1.30;69.80
71668;DHT22;59504;54.806;9.640;2022-12-07T12:11:03;1.30;69.90
71668;DHT22;59504;54.806;9.640;2022-12-07T12:21:31;1.30;70.30
71668;DHT22;59504;54.806;9.640;2022-12-07T12:26:20;1.20;70.50
71668;DHT22;59504;54.806;9.640;2022-12-07T12:28:48;1.30;70.60
71668;DHT22;59504;54.806;9.640;2022-12-07T12:33:55;1.20;70.80
71668;DHT22;59504;54.806;9.640;2022-12-07T12:36:44;1.20;70.90
71668;DHT22;59504;54.806;9.640;2022-12-07T12:39:17;1.30;71.00
71668;DHT22;59504;54.806;9.640;2022-12-07T12:46:38;1.30;70.70
71668;DHT22;59504;54.806;9.640;2022-12-07T12:51:38;1.20;70.80
71668;DHT22;59504;54.806;9.640;2022-12-07T12:59:34;1.30;71.00
71668;DHT22;59504;54.806;9.640;2022-12-07T13:02:15;1.20;70.90
71668;DHT22;59504;54.806;9.640;2022-12-07T13:10:34;1.30;71.20
71668;DHT22;59504;54.806;9.640;2022-12-07T13:18:02;1.40;71.20
71668;DHT22;59504;54.806;9.640;2022-12-07T13:20:51;1.40;71.00
71668;DHT22;59504;54.806;9.640;2022-12-07T13:23:12;1.40;71.00
71668;DHT22;59504;54.806;9.640;2022-12-07T13:25:51;1.40;70.90
71668;DHT22;59504;54.806;9.640;2022-12-07T13:28:17;1.40;70.70
71668;DHT22;59504;54.806;9.640;2022-12-07T13:31:13;1.40;70.80
71668;DHT22;59504;54.806;9.640;2022-12-07T13:33:34;1.30;70.80
71668;DHT22;59504;54.806;9.640;2022-12-07T13:35:55;1.30;71.00
71668;DHT22;59504;54.806;9.640;2022-12-07T13:38:29;1.30;71.00
71668;DHT22;59504;54.806;9.640;2022-12-07T13:41:20;1.40;71.10
71668;DHT22;59504;54.806;9.640;2022-12-07T13:46:12;1.30;71.10
71668;DHT22;59504;54.806;9.640;2022-12-07T13:48:44;1.40;71.10
71668;DHT22;59504;54.806;9.640;2022-12-07T13:51:19;1.30;71.10
71668;DHT22;59504;54.806;9.640;2022-12-07T13:53:47;1.30;71.10
71668;DHT22;59504;54.806;9.640;2022-12-07T13:56:13;1.30;71.10
71668;DHT22;59504;54.806;9.640;2022-12-07T13:58:33;1.30;71.00
71668;DHT22;59504;54.806;9.640;2022-12-07T14:00:53;1.30;71.00
71668;DHT22;59504;54.806;9.640;2022-12-07T14:05:33;1.30;70.90
71668;DHT22;59504;54.806;9.640;2022-12-07T14:12:45;1.30;70.80
71668;DHT22;59504;54.806;9.640;2022-12-07T14:15:04;1.40;70.80
71668;DHT22;59504;54.806;9.640;2022-12-07T14:17:26;1.30;70.80
71668;DHT22;59504;54.806;9.640;2022-12-07T14:19:58;1.30;70.80
71668;DHT22;59504;54.806;9.640;2022-12-07T14:27:33;1.30;70.80
71668;DHT22;59504;54.806;9.640;2022-12-07T14:29:53;1.40;70.80
71668;DHT22;59504;54.806;9.640;2022-12-07T14:34:37;1.30;70.80
71668;DHT22;59504;54.806;9.640;2022-12-07T14:36:56;1.30;70.80
71668;DHT22;59504;54.806;9.640;2022-12-07T14:39:16;1.30;71.10
71668;DHT22;59504;54.806;9.640;2022-12-07T14:41:35;1.30;70.70
71668;DHT22;59504;54.806;9.640;2022-12-07T14:44:12;1.30;70.70
71668;DHT22;59504;54.806;9.640;2022-12-07T14:46:31;1.30;70.60
71668;DHT22;59504;54.806;9.640;2022-12-07T14:48:50;1.30;70.60
71668;DHT22;59504;54.806;9.640;2022-12-07T14:51:12;1.20;70.50
71668;DHT22;59504;54.806;9.640;2022-12-07T14:53:38;1.20;70.50
71668;DHT22;59504;54.806;9.640;2022-12-07T14:55:57;1.20;70.40
71668;DHT22;59504;54.806;9.640;2022-12-07T14:58:17;1.30;70.50
71668;DHT22;59504;54.806;9.640;2022-12-07T15:00:36;1.30;70.50
71668;DHT22;59504;54.806;9.640;2022-12-07T15:02:56;1.00;70.30
71668;DHT22;59504;54.806;9.640;2022-12-07T15:05:16;1.20;70.50
71668;DHT22;59504;54.806;9.640;2022-12-07T15:07:36;1.10;70.30
71668;DHT22;59504;54.806;9.640;2022-12-07T15:09:55;1.20;70.40
71668;DHT22;59504;54.806;9.640;2022-12-07T15:12:14;1.20;70.40
71668;DHT22;59504;54.806;9.640;2022-12-07T15:14:34;1.00;70.30
71668;DHT22;59504;54.806;9.640;2022-12-07T15:16:53;1.00;70.30
71668;DHT22;59504;54.806;9.640;2022-12-07T15:19:23;1.10;70.40
71668;DHT22;59504;54.806;9.640;2022-12-07T15:21:44;0.90;70.30
71668;DHT22;59504;54.806;9.640;2022-12-07T15:24:08;0.90;70.20
71668;DHT22;59504;54.806;9.640;2022-12-07T15:26:28;1.00;70.30
71668;DHT22;59504;54.806;9.640;2022-12-07T15:28:47;0.80;70.20
71668;DHT22;59504;54.806;9.640;2022-12-07T15:31:13;0.90;70.20
71668;DHT22;59504;54.806;9.640;2022-12-07T15:33:33;0.80;70.20
71668;DHT22;59504;54.806;9.640;2022-12-07T15:35:52;0.70;70.20
71668;DHT22;59504;54.806;9.640;2022-12-07T15:38:11;0.70;70.20
71668;DHT22;59504;54.806;9.640;2022-12-07T15:40:30;0.80;70.30
71668;DHT22;59504;54.806;9.640;2022-12-07T15:42:50;0.60;70.20
71668;DHT22;59504;54.806;9.640;2022-12-07T15:45:10;0.60;70.30
71668;DHT22;59504;54.806;9.640;2022-12-07T15:47:31;0.60;70.30
71668;DHT22;59504;54.806;9.640;2022-12-07T15:49:54;0.70;70.50
71668;DHT22;59504;54.806;9.640;2022-12-07T15:52:14;0.60;70.50
71668;DHT22;59504;54.806;9.640;2022-12-07T15:54:37;0.40;70.50
71668;DHT22;59504;54.806;9.640;2022-12-07T15:57:21;0.50;70.60
71668;DHT22;59504;54.806;9.640;2022-12-07T16:00:00;0.50;70.70
71668;DHT22;59504;54.806;9.640;2022-12-07T16:02:28;0.40;70.60
71668;DHT22;59504;54.806;9.640;2022-12-07T16:04:47;0.50;70.80
71668;DHT22;59504;54.806;9.640;2022-12-07T16:07:08;0.30;70.80
71668;DHT22;59504;54.806;9.640;2022-12-07T16:09:27;0.20;70.90
71668;DHT22;59504;54.806;9.640;2022-12-07T16:11:46;0.30;71.00
71668;DHT22;59504;54.806;9.640;2022-12-07T16:14:05;0.30;71.10
71668;DHT22;59504;54.806;9.640;2022-12-07T16:16:38;0.30;71.20
71668;DHT22;59504;54.806;9.640;2022-12-07T16:18:58;0.20;71.20
71668;DHT22;59504;54.806;9.640;2022-12-07T16:21:18;0.20;71.30
71668;DHT22;59504;54.806;9.640;2022-12-07T16:23:38;0.20;71.40
71668;DHT22;59504;54.806;9.640;2022-12-07T16:26:06;0.20;71.40
71668;DHT22;59504;54.806;9.640;2022-12-07T16:28:26;0.20;71.50
71668;DHT22;59504;54.806;9.640;2022-12-07T16:30:45;0.20;71.40
71668;DHT22;59504;54.806;9.640;2022-12-07T16:33:04;0.10;71.40
71668;DHT22;59504;54.806;9.640;2022-12-07T16:35:23;0.10;71.50
71668;DHT22;59504;54.806;9.640;2022-12-07T16:37:43;0.20;71.60
71668;DHT22;59504;54.806;9.640;2022-12-07T16:40:02;0.10;71.60
71668;DHT22;59504;54.806;9.640;2022-12-07T16:42:21;0.10;71.70
71668;DHT22;59504;54.806;9.640;2022-12-07T16:44:40;0.10;71.90
71668;DHT22;59504;54.806;9.640;2022-12-07T16:47:00;0.10;72.40
71668;DHT22;59504;54.806;9.640;2022-12-07T16:49:19;0.10;72.60
71668;DHT22;59504;54.806;9.640;2022-12-07T16:51:38;0.10;72.60
71668;DHT22;59504;54.806;9.640;2022-12-07T16:53:58;0.10;73.30
71668;DHT22;59504;54.806;9.640;2022-12-07T16:56:17;0.10;72.50
71668;DHT22;59504;54.806;9.640;2022-12-07T16:58:37;0.10;72.50
71668;DHT22;59504;54.806;9.640;2022-12-07T17:00:57;0.10;72.50
71668;DHT22;59504;54.806;9.640;2022-12-07T17:03:16;0.10;72.60
71668;DHT22;59504;54.806;9.640;2022-12-07T17:05:41;0.10;72.60
71668;DHT22;59504;54.806;9.640;2022-12-07T17:08:01;0.10;72.70
71668;DHT22;59504;54.806;9.640;2022-12-07T17:10:22;0.10;72.70
71668;DHT22;59504;54.806;9.640;2022-12-07T17:12:42;0.10;72.70
71668;DHT22;59504;54.806;9.640;2022-12-07T17:15:02;0.10;72.70
71668;DHT22;59504;54.806;9.640;2022-12-07T17:17:37;0.10;72.60
71668;DHT22;59504;54.806;9.640;2022-12-07T17:19:56;0.00;72.40
71668;DHT22;59504;54.806;9.640;2022-12-07T17:22:15;0.00;72.30